createdAt,value
2018-06-24T00:00:46.545Z,61.10
2018-06-24T00:03:18.044Z,61.30
2018-06-24T00:15:13.641Z,61.40
2018-06-24T00:18:05.491Z,62.00
2018-06-24T00:20:37.389Z,62.10
2018-06-24T00:23:28.097Z,62.30
2018-06-24T00:26:00.770Z,62.40
2018-06-24T00:28:32.999Z,62.30
2018-06-24T00:31:10.492Z,62.20
2018-06-24T00:33:51.734Z,62.50
2018-06-24T00:36:37.521Z,62.50
2018-06-24T00:39:59.197Z,62.90
2018-06-24T00:43:45.288Z,63.10
2018-06-24T00:46:49.714Z,63.00
2018-06-24T01:10:30.146Z,63.80
2018-06-24T01:13:01.136Z,63.20
2018-06-24T01:26:53.664Z,63.60
2018-06-24T01:29:35.840Z,64.10
2018-06-24T01:49:22.465Z,64.90
2018-06-24T01:51:54.465Z,64.70
2018-06-24T01:54:33.617Z,65.10
2018-06-24T01:57:05.028Z,65.10
2018-06-24T01:59:41.716Z,65.20
2018-06-24T02:02:46.407Z,65.40
2018-06-24T02:05:16.669Z,65.50
2018-06-24T02:07:51.895Z,65.30
2018-06-24T02:10:26.374Z,65.20
2018-06-24T02:13:06.121Z,65.40
2018-06-24T02:15:36.820Z,65.30
2018-06-24T02:18:09.508Z,65.30
2018-06-24T02:20:40.719Z,65.50
2018-06-24T02:23:11.255Z,65.80
2018-06-24T02:25:47.263Z,65.50
2018-06-24T02:28:19.300Z,66.20
2018-06-24T02:30:51.212Z,65.70
2018-06-24T02:33:25.030Z,65.70
2018-06-24T02:38:39.161Z,66.30
2018-06-24T02:41:11.058Z,66.00
2018-06-24T02:43:43.551Z,66.40
2018-06-24T07:41:11.156Z,65.50
2018-06-24T07:43:42.208Z,65.00
2018-06-24T07:46:11.457Z,65.00
2018-06-24T07:48:42.569Z,65.20
2018-06-24T07:53:57.890Z,65.60
2018-06-24T07:56:28.025Z,65.50
2018-06-24T07:58:58.035Z,64.60
2018-06-24T08:01:28.614Z,64.30
2018-06-24T08:03:59.984Z,65.00
2018-06-24T08:06:30.930Z,65.40
2018-06-24T08:09:01.892Z,65.10
2018-06-24T08:11:31.633Z,65.10
2018-06-24T08:14:00.321Z,64.80
2018-06-24T08:16:29.015Z,64.20
2018-06-24T08:18:57.694Z,64.90
2018-06-24T08:21:26.439Z,65.00
2018-06-24T08:23:55.520Z,64.70
2018-06-24T08:26:24.524Z,64.30
2018-06-24T08:28:53.377Z,64.30
2018-06-24T08:31:22.225Z,64.00
2018-06-24T08:33:51.363Z,63.60
2018-06-24T08:36:24.734Z,63.10
2018-06-24T08:38:53.719Z,63.00
2018-06-24T08:41:29.261Z,63.20
2018-06-24T08:43:58.421Z,63.70
2018-06-24T08:46:27.113Z,63.70
2018-06-24T08:48:56.072Z,63.20
2018-06-24T08:51:24.951Z,62.70
2018-06-24T08:53:54.158Z,62.50
2018-06-24T08:56:23.551Z,62.60
2018-06-24T08:58:55.766Z,63.10
2018-06-24T09:01:26.310Z,62.90
2018-06-24T09:03:56.068Z,62.60
2018-06-24T09:06:25.318Z,62.50
2018-06-24T09:08:55.971Z,62.20
2018-06-24T09:11:26.386Z,62.20
2018-06-24T09:13:57.755Z,61.70
2018-06-24T09:16:27.953Z,61.40
2018-06-24T09:18:57.535Z,60.90
2018-06-24T09:21:30.201Z,61.10
2018-06-24T09:24:00.624Z,61.50
2018-06-24T09:26:30.877Z,61.60
2018-06-24T09:28:59.677Z,61.00
2018-06-24T09:31:29.189Z,60.80
2018-06-24T09:33:58.794Z,61.20
2018-06-24T09:36:28.425Z,61.10
2018-06-24T09:38:57.242Z,61.10
2018-06-24T09:41:25.964Z,61.20
2018-06-24T09:44:04.257Z,61.50
2018-06-24T09:46:33.897Z,61.70
2018-06-24T09:49:03.282Z,61.90
2018-06-24T09:51:37.733Z,61.50
2018-06-24T09:54:07.182Z,61.50
2018-06-24T10:05:14.632Z,66.40
2018-06-24T10:07:43.482Z,64.00
2018-06-24T10:10:12.503Z,63.30
2018-06-24T10:12:41.312Z,61.70
2018-06-24T10:15:10.095Z,61.60
2018-06-24T10:17:39.825Z,61.70
2018-06-24T10:20:08.512Z,61.70
2018-06-24T10:22:37.218Z,61.00
2018-06-24T10:25:05.907Z,62.20
2018-06-24T10:27:35.134Z,62.20
2018-06-24T10:30:03.782Z,61.30
2018-06-24T10:32:32.488Z,62.30
2018-06-24T10:35:01.655Z,62.50
2018-06-24T10:37:30.321Z,62.80
2018-06-24T10:39:58.988Z,63.60
2018-06-24T10:42:27.681Z,65.30
2018-06-24T10:44:56.641Z,66.90
2018-06-24T10:47:25.514Z,67.00
2018-06-24T10:49:54.357Z,67.80
2018-06-24T10:52:23.191Z,67.70
2018-06-24T10:54:52.300Z,68.80
2018-06-24T10:57:22.410Z,69.20
2018-06-24T10:59:51.258Z,69.60
2018-06-24T11:02:19.983Z,69.70
2018-06-24T11:04:48.918Z,69.60
2018-06-24T11:07:17.594Z,69.60
2018-06-24T11:09:46.354Z,69.50
2018-06-24T11:12:14.992Z,69.80
2018-06-24T11:14:43.749Z,69.30
2018-06-24T11:17:12.678Z,69.20
2018-06-24T11:19:41.397Z,69.00
2018-06-24T11:22:10.998Z,68.90
2018-06-24T11:24:39.702Z,69.30
2018-06-24T11:27:08.561Z,68.50
2018-06-24T11:29:37.350Z,68.70
2018-06-24T11:32:06.094Z,68.80
2018-06-24T11:34:34.821Z,68.20
2018-06-24T11:37:03.549Z,67.30
2018-06-24T11:39:32.177Z,67.60
2018-06-24T11:42:00.906Z,67.90
2018-06-24T11:44:29.694Z,65.80
2018-06-24T11:46:59.380Z,66.00
2018-06-24T11:49:28.101Z,66.80
2018-06-24T11:51:56.834Z,66.10
2018-06-24T12:00:14.205Z,65.80
2018-06-24T12:03:05.857Z,65.80
2018-06-24T12:05:35.533Z,65.30
2018-06-24T12:20:06.784Z,65.90
2018-06-24T12:22:35.894Z,66.10
2018-06-24T12:32:30.844Z,65.30
2018-06-24T12:46:58.181Z,65.00
2018-06-24T12:52:25.818Z,64.80
2018-06-24T12:54:55.125Z,65.20
2018-06-24T13:11:39.380Z,65.50
2018-06-24T13:40:31.274Z,66.20
2018-06-24T13:43:12.407Z,66.60
2018-06-24T13:45:47.472Z,66.90
2018-06-24T13:48:20.766Z,66.90
2018-06-24T13:50:50.166Z,66.90
2018-06-24T14:10:28.205Z,68.20
2018-06-24T14:45:57.975Z,69.50
2018-06-24T14:59:46.806Z,74.70
2018-06-24T15:02:19.326Z,75.00
2018-06-24T15:11:25.022Z,74.20
2018-06-24T15:22:44.226Z,74.80
2018-06-24T15:36:50.377Z,73.50
2018-06-24T15:59:05.914Z,73.40
2018-06-24T16:01:47.674Z,73.30
2018-06-24T16:59:14.853Z,75.50
2018-06-24T17:01:54.074Z,75.70
2018-06-24T17:27:58.697Z,80.20
2018-06-24T17:42:46.644Z,81.80
2018-06-24T18:10:26.073Z,82.60
2018-06-24T18:52:06.521Z,81.90
2018-06-24T18:54:39.423Z,81.70
2018-06-24T19:16:27.038Z,82.20
2018-06-24T19:56:10.711Z,85.00
2018-06-24T19:58:43.481Z,84.80
2018-06-24T20:06:31.419Z,84.10
2018-06-24T20:09:01.644Z,83.90
2018-06-24T20:11:38.055Z,83.50
2018-06-24T20:20:16.347Z,83.50
2018-06-24T20:31:17.011Z,83.80
2018-06-24T20:53:51.267Z,83.80
2018-06-24T21:08:37.974Z,83.90
2018-06-24T21:11:08.200Z,84.00
2018-06-24T21:13:38.152Z,84.20
2018-06-24T21:16:09.840Z,84.10
2018-06-24T21:18:48.495Z,84.90
2018-06-24T21:24:10.688Z,84.50
2018-06-24T21:29:55.779Z,84.10
2018-06-24T21:46:02.742Z,83.40
2018-06-24T21:48:38.885Z,83.30
2018-06-24T21:51:14.356Z,83.60
2018-06-24T22:08:33.670Z,82.50
2018-06-24T22:16:07.614Z,82.40
2018-06-24T22:18:49.194Z,82.70
